ePrivacy and GPDR Cookie Consent by Cookie Consent
EmailTwitter


Surface observations / United States / KJFK (74486)

Regions: Quebec | Canada | USA | Europe | France | UK | Elsewhere
Station
Display
Info & Location for KJFK (74486) | Help decoding METAR

Weather Conditions observed on 2022/06/25 at 00:51 UTC at NEW YORK/JF KENN, NY (KJFK)

Sky conditions: variable clouds.

Temperature: 21.0 Celsius.

Dewpoint: 18.0 Celsius.

Relative Humidity: 83%

Humidex 27.

Winds: South at 17 km/h or 9 knots.

Mean Sea level Pressure: 101.70 kilopascals.

Altimeter Setting (QNH): 101.69 kilopascals or 30.03 inches of mercury.

Horizontal visibility: 10.00 statute miles or 16.00 kilometers.

Coded METAR:

KJFK 250051Z 19009KT 10SM FEW050 SCT080 21/18 A3003 RMK AO2 SLP170 T02060183=